CheckWX is a tool to help pilots better visualize weather data.  It is not intended as a substitute for an official pre-flight weather briefing.

14:18:05 UTC

KTIK METAR
Tinker AFB Airport
Oklahoma City, Oklahoma, USA
Current

22 mins ago

KTIK 221356Z AUTO 26006KT 10SM CLR 08/M03 A3020 RMK AO2 SLP234 T00821030
Observed
Oct-22 @ 13:56 UTC
Wind
  • 260° at 6 KTS
Visibility
10 SM
Flight Rules
VFR
Cloud Levels
  • Clear skies
Temperature
C / 46°F
Dewpoint
-3°C / 27°F
Humidity
46%
Altimeter
30.2" Hg
Pressure
1022.72 hPa
Previous

1 hour ago

KTIK 221256Z AUTO 25006KT 10SM CLR 05/M03 A3018 RMK AO2 SLP228 T00531030
Observed
Oct-22 @ 12:56 UTC
Wind
  • 250° at 6 KTS
Visibility
10 SM
Flight Rules
VFR
Cloud Levels
  • Clear skies
Temperature
C / 41°F
Dewpoint
-3°C / 27°F
Humidity
57%
Altimeter
30.18" Hg
Pressure
1022.02 hPa
Previous

2 hours ago

KTIK 221156Z AUTO 00000KT 10SM CLR 07/M03 A3016 RMK AO2 SLP219 T00651032 10102 20047 52014
Observed
Oct-22 @ 11:56 UTC
Visibility
10 SM
Flight Rules
VFR
Cloud Levels
  • Clear skies
Temperature
C / 45°F
Dewpoint
-3°C / 27°F
Humidity
49%
Altimeter
30.16" Hg
Pressure
1021.32 hPa